sensor_id;sensor_type;location;lat;lon;timestamp;P1;durP1;ratioP1;P2;durP2;ratioP2
62457;SDS011;48509;52.122;5.250;2024-03-02T00:00:39;4.2;;;1.6;;
62457;SDS011;48509;52.122;5.250;2024-03-02T00:03:54;8.5;;;2.0;;
62457;SDS011;48509;52.122;5.250;2024-03-02T00:05:30;4.8;;;1.7;;
62457;SDS011;48509;52.122;5.250;2024-03-02T00:07:06;3.5;;;1.9;;
62457;SDS011;48509;52.122;5.250;2024-03-02T00:10:19;5.0;;;1.8;;
62457;SDS011;48509;52.122;5.250;2024-03-02T00:11:58;3.4;;;1.5;;
62457;SDS011;48509;52.122;5.250;2024-03-02T00:13:36;2.8;;;1.7;;
62457;SDS011;48509;52.122;5.250;2024-03-02T00:15:19;2.8;;;1.7;;
62457;SDS011;48509;52.122;5.250;2024-03-02T00:17:17;3.9;;;1.6;;
62457;SDS011;48509;52.122;5.250;2024-03-02T00:20:38;2.9;;;1.9;;
62457;SDS011;48509;52.122;5.250;2024-03-02T00:22:15;3.8;;;1.9;;
62457;SDS011;48509;52.122;5.250;2024-03-02T00:23:51;4.0;;;1.6;;
62457;SDS011;48509;52.122;5.250;2024-03-02T00:27:13;4.2;;;1.7;;
62457;SDS011;48509;52.122;5.250;2024-03-02T00:28:51;4.2;;;1.8;;
62457;SDS011;48509;52.122;5.250;2024-03-02T00:30:39;1.8;;;1.5;;
62457;SDS011;48509;52.122;5.250;2024-03-02T00:32:27;4.1;;;1.3;;
62457;SDS011;48509;52.122;5.250;2024-03-02T00:34:11;3.0;;;1.3;;
62457;SDS011;48509;52.122;5.250;2024-03-02T00:37:26;2.6;;;1.11;;
62457;SDS011;48509;52.122;5.250;2024-03-02T00:39:02;2.4;;;0.9;;
62457;SDS011;48509;52.122;5.250;2024-03-02T00:40:38;2.5;;;0.7;;
62457;SDS011;48509;52.122;5.250;2024-03-02T00:43:56;1.0;;;0.6;;
62457;SDS011;48509;52.122;5.250;2024-03-02T00:45:34;1.9;;;0.4;;
62457;SDS011;48509;52.122;5.250;2024-03-02T00:47:10;1.0;;;0.4;;
62457;SDS011;48509;52.122;5.250;2024-03-02T00:48:48;0.3;;;0.3;;
62457;SDS011;48509;52.122;5.250;2024-03-02T00:52:05;0.6;;;0.4;;
62457;SDS011;48509;52.122;5.250;2024-03-02T00:53:42;0.5;;;0.3;;
62457;SDS011;48509;52.122;5.250;2024-03-02T00:55:18;0.5;;;0.4;;
62457;SDS011;48509;52.122;5.250;2024-03-02T00:58:36;0.5;;;0.4;;
62457;SDS011;48509;52.122;5.250;2024-03-02T01:00:12;3.5;;;0.4;;
62457;SDS011;48509;52.122;5.250;2024-03-02T01:01:49;0.4;;;0.4;;
62457;SDS011;48509;52.122;5.250;2024-03-02T01:03:25;0.8;;;0.3;;
62457;SDS011;48509;52.122;5.250;2024-03-02T01:06:37;0.3;;;0.3;;
62457;SDS011;48509;52.122;5.250;2024-03-02T01:08:13;0.5;;;0.3;;
62457;SDS011;48509;52.122;5.250;2024-03-02T01:09:49;0.8;;;0.4;;
62457;SDS011;48509;52.122;5.250;2024-03-02T01:13:02;1.0;;;0.5;;
62457;SDS011;48509;52.122;5.250;2024-03-02T01:14:38;0.7;;;0.5;;
62457;SDS011;48509;52.122;5.250;2024-03-02T01:16:14;1.2;;;0.4;;
62457;SDS011;48509;52.122;5.250;2024-03-02T01:19:26;1.8;;;0.5;;
62457;SDS011;48509;52.122;5.250;2024-03-02T01:21:02;0.7;;;0.5;;
62457;SDS011;48509;52.122;5.250;2024-03-02T01:22:39;0.8;;;0.5;;
62457;SDS011;48509;52.122;5.250;2024-03-02T01:24:15;1.5;;;0.7;;
62457;SDS011;48509;52.122;5.250;2024-03-02T01:27:29;1.6;;;0.4;;
62457;SDS011;48509;52.122;5.250;2024-03-02T01:29:05;0.8;;;0.6;;
62457;SDS011;48509;52.122;5.250;2024-03-02T01:30:41;1.9;;;0.7;;
62457;SDS011;48509;52.122;5.250;2024-03-02T01:33:53;1.0;;;0.5;;
62457;SDS011;48509;52.122;5.250;2024-03-02T01:35:29;0.7;;;0.4;;
62457;SDS011;48509;52.122;5.250;2024-03-02T01:37:05;2.21;;;0.5;;
62457;SDS011;48509;52.122;5.250;2024-03-02T01:40:17;1.11;;;0.5;;
62457;SDS011;48509;52.122;5.250;2024-03-02T01:41:54;1.3;;;0.5;;
62457;SDS011;48509;52.122;5.250;2024-03-02T01:43:30;1.5;;;0.4;;
62457;SDS011;48509;52.122;5.250;2024-03-02T01:45:06;0.7;;;0.5;;
62457;SDS011;48509;52.122;5.250;2024-03-02T01:48:20;0.5;;;0.5;;
62457;SDS011;48509;52.122;5.250;2024-03-02T01:49:56;1.7;;;0.5;;
62457;SDS011;48509;52.122;5.250;2024-03-02T01:51:32;2.7;;;0.4;;
62457;SDS011;48509;52.122;5.250;2024-03-02T01:54:44;2.1;;;0.5;;
62457;SDS011;48509;52.122;5.250;2024-03-02T01:56:20;1.3;;;0.6;;
62457;SDS011;48509;52.122;5.250;2024-03-02T01:57:57;1.11;;;0.6;;
62457;SDS011;48509;52.122;5.250;2024-03-02T02:01:09;0.6;;;0.5;;
62457;SDS011;48509;52.122;5.250;2024-03-02T02:02:45;0.8;;;0.5;;
62457;SDS011;48509;52.122;5.250;2024-03-02T02:04:21;1.5;;;0.4;;
62457;SDS011;48509;52.122;5.250;2024-03-02T02:07:33;0.5;;;0.5;;
62457;SDS011;48509;52.122;5.250;2024-03-02T02:09:10;0.4;;;0.4;;
62457;SDS011;48509;52.122;5.250;2024-03-02T02:10:46;1.0;;;0.4;;
62457;SDS011;48509;52.122;5.250;2024-03-02T02:12:23;1.4;;;0.5;;
62457;SDS011;48509;52.122;5.250;2024-03-02T02:15:36;1.5;;;0.5;;
62457;SDS011;48509;52.122;5.250;2024-03-02T02:17:12;0.7;;;0.5;;
62457;SDS011;48509;52.122;5.250;2024-03-02T02:18:48;0.8;;;0.5;;
62457;SDS011;48509;52.122;5.250;2024-03-02T02:22:01;0.9;;;0.6;;
62457;SDS011;48509;52.122;5.250;2024-03-02T02:23:37;0.9;;;0.5;;
62457;SDS011;48509;52.122;5.250;2024-03-02T02:25:14;1.2;;;0.6;;
62457;SDS011;48509;52.122;5.250;2024-03-02T02:28:26;1.0;;;0.5;;
62457;SDS011;48509;52.122;5.250;2024-03-02T02:30:02;1.0;;;0.5;;
62457;SDS011;48509;52.122;5.250;2024-03-02T02:31:39;1.0;;;0.6;;
62457;SDS011;48509;52.122;5.250;2024-03-02T02:33:16;1.0;;;0.6;;
62457;SDS011;48509;52.122;5.250;2024-03-02T02:36:28;1.0;;;0.6;;
62457;SDS011;48509;52.122;5.250;2024-03-02T02:38:04;1.0;;;0.6;;
62457;SDS011;48509;52.122;5.250;2024-03-02T02:39:41;0.8;;;0.6;;
62457;SDS011;48509;52.122;5.250;2024-03-02T02:42:53;1.5;;;0.6;;
62457;SDS011;48509;52.122;5.250;2024-03-02T02:44:29;2.0;;;0.8;;
62457;SDS011;48509;52.122;5.250;2024-03-02T02:46:05;0.7;;;0.6;;
62457;SDS011;48509;52.122;5.250;2024-03-02T02:49:18;1.8;;;0.6;;
62457;SDS011;48509;52.122;5.250;2024-03-02T02:50:54;0.7;;;0.6;;
62457;SDS011;48509;52.122;5.250;2024-03-02T02:52:31;1.11;;;0.8;;
62457;SDS011;48509;52.122;5.250;2024-03-02T02:54:08;0.9;;;0.8;;
62457;SDS011;48509;52.122;5.250;2024-03-02T02:57:20;1.3;;;0.7;;
62457;SDS011;48509;52.122;5.250;2024-03-02T02:58:56;0.5;;;0.5;;
62457;SDS011;48509;52.122;5.250;2024-03-02T03:00:32;0.8;;;0.7;;
62457;SDS011;48509;52.122;5.250;2024-03-02T03:03:44;1.11;;;0.7;;
62457;SDS011;48509;52.122;5.250;2024-03-02T03:05:22;1.6;;;0.7;;
62457;SDS011;48509;52.122;5.250;2024-03-02T03:06:58;1.3;;;0.6;;
62457;SDS011;48509;52.122;5.250;2024-03-02T03:10:10;0.8;;;0.6;;
62457;SDS011;48509;52.122;5.250;2024-03-02T03:11:46;1.3;;;0.5;;
62457;SDS011;48509;52.122;5.250;2024-03-02T03:13:22;1.11;;;0.6;;
62457;SDS011;48509;52.122;5.250;2024-03-02T03:16:35;1.8;;;0.7;;
62457;SDS011;48509;52.122;5.250;2024-03-02T03:18:11;0.8;;;0.6;;
62457;SDS011;48509;52.122;5.250;2024-03-02T03:19:48;0.7;;;0.7;;
62457;SDS011;48509;52.122;5.250;2024-03-02T03:21:24;0.9;;;0.5;;
62457;SDS011;48509;52.122;5.250;2024-03-02T03:24:36;0.8;;;0.6;;
62457;SDS011;48509;52.122;5.250;2024-03-02T03:26:12;2.21;;;0.6;;
62457;SDS011;48509;52.122;5.250;2024-03-02T03:27:48;0.9;;;0.6;;
62457;SDS011;48509;52.122;5.250;2024-03-02T03:31:00;2.6;;;0.6;;
62457;SDS011;48509;52.122;5.250;2024-03-02T03:32:36;0.8;;;0.5;;
62457;SDS011;48509;52.122;5.250;2024-03-02T03:34:13;1.3;;;0.5;;
62457;SDS011;48509;52.122;5.250;2024-03-02T03:37:25;1.2;;;0.5;;
62457;SDS011;48509;52.122;5.250;2024-03-02T03:39:04;1.2;;;0.5;;
62457;SDS011;48509;52.122;5.250;2024-03-02T03:40:40;0.8;;;0.5;;
62457;SDS011;48509;52.122;5.250;2024-03-02T03:42:17;0.7;;;0.4;;
62457;SDS011;48509;52.122;5.250;2024-03-02T03:45:29;0.9;;;0.6;;
62457;SDS011;48509;52.122;5.250;2024-03-02T03:47:06;2.21;;;0.6;;
62457;SDS011;48509;52.122;5.250;2024-03-02T03:48:42;1.3;;;0.5;;
62457;SDS011;48509;52.122;5.250;2024-03-02T03:51:54;1.5;;;0.4;;
62457;SDS011;48509;52.122;5.250;2024-03-02T03:53:30;1.4;;;0.4;;
62457;SDS011;48509;52.122;5.250;2024-03-02T03:58:19;1.3;;;0.5;;
62457;SDS011;48509;52.122;5.250;2024-03-02T03:59:55;0.7;;;0.4;;
62457;SDS011;48509;52.122;5.250;2024-03-02T04:01:32;1.11;;;0.4;;
62457;SDS011;48509;52.122;5.250;2024-03-02T04:04:44;3.2;;;0.5;;
62457;SDS011;48509;52.122;5.250;2024-03-02T04:06:20;1.5;;;0.4;;
62457;SDS011;48509;52.122;5.250;2024-03-02T04:07:56;2.31;;;0.5;;
62457;SDS011;48509;52.122;5.250;2024-03-02T04:09:32;1.4;;;0.5;;
62457;SDS011;48509;52.122;5.250;2024-03-02T04:12:44;1.0;;;0.6;;
62457;SDS011;48509;52.122;5.250;2024-03-02T04:14:21;1.4;;;0.6;;
62457;SDS011;48509;52.122;5.250;2024-03-02T04:15:57;1.5;;;0.6;;
62457;SDS011;48509;52.122;5.250;2024-03-02T04:19:09;3.3;;;0.6;;
62457;SDS011;48509;52.122;5.250;2024-03-02T04:20:45;1.11;;;0.5;;
62457;SDS011;48509;52.122;5.250;2024-03-02T04:22:21;1.3;;;0.6;;
62457;SDS011;48509;52.122;5.250;2024-03-02T04:25:33;1.6;;;0.5;;
62457;SDS011;48509;52.122;5.250;2024-03-02T04:27:09;1.3;;;0.6;;
62457;SDS011;48509;52.122;5.250;2024-03-02T04:28:46;2.1;;;0.7;;
62457;SDS011;48509;52.122;5.250;2024-03-02T04:30:22;2.7;;;0.6;;
62457;SDS011;48509;52.122;5.250;2024-03-02T04:33:34;0.8;;;0.5;;
62457;SDS011;48509;52.122;5.250;2024-03-02T04:35:10;1.11;;;0.5;;
62457;SDS011;48509;52.122;5.250;2024-03-02T04:36:46;0.9;;;0.6;;
62457;SDS011;48509;52.122;5.250;2024-03-02T04:39:58;1.7;;;0.5;;
62457;SDS011;48509;52.122;5.250;2024-03-02T04:41:34;1.3;;;0.6;;
62457;SDS011;48509;52.122;5.250;2024-03-02T04:43:11;0.9;;;0.5;;
62457;SDS011;48509;52.122;5.250;2024-03-02T04:46:23;3.2;;;0.5;;
62457;SDS011;48509;52.122;5.250;2024-03-02T04:47:59;1.2;;;0.6;;
62457;SDS011;48509;52.122;5.250;2024-03-02T04:49:35;0.7;;;0.6;;
62457;SDS011;48509;52.122;5.250;2024-03-02T04:52:47;1.3;;;0.5;;
62457;SDS011;48509;52.122;5.250;2024-03-02T04:54:23;1.7;;;0.7;;
62457;SDS011;48509;52.122;5.250;2024-03-02T04:55:59;1.3;;;0.6;;
62457;SDS011;48509;52.122;5.250;2024-03-02T04:57:36;0.9;;;0.6;;
62457;SDS011;48509;52.122;5.250;2024-03-02T05:00:51;1.11;;;0.6;;
62457;SDS011;48509;52.122;5.250;2024-03-02T05:02:27;1.0;;;0.5;;
62457;SDS011;48509;52.122;5.250;2024-03-02T05:04:03;1.4;;;0.6;;
62457;SDS011;48509;52.122;5.250;2024-03-02T05:07:15;0.6;;;0.5;;
62457;SDS011;48509;52.122;5.250;2024-03-02T05:08:51;1.8;;;0.8;;
62457;SDS011;48509;52.122;5.250;2024-03-02T05:10:27;0.5;;;0.5;;
62457;SDS011;48509;52.122;5.250;2024-03-02T05:13:41;1.9;;;0.6;;
62457;SDS011;48509;52.122;5.250;2024-03-02T05:15:17;1.2;;;0.6;;
62457;SDS011;48509;52.122;5.250;2024-03-02T05:16:53;2.31;;;0.7;;
62457;SDS011;48509;52.122;5.250;2024-03-02T05:18:29;1.3;;;0.6;;
62457;SDS011;48509;52.122;5.250;2024-03-02T05:21:43;1.5;;;0.6;;
62457;SDS011;48509;52.122;5.250;2024-03-02T05:23:19;1.5;;;0.6;;
62457;SDS011;48509;52.122;5.250;2024-03-02T05:24:56;2.5;;;0.6;;
62457;SDS011;48509;52.122;5.250;2024-03-02T05:28:09;1.9;;;0.8;;
62457;SDS011;48509;52.122;5.250;2024-03-02T05:29:45;1.2;;;0.6;;
62457;SDS011;48509;52.122;5.250;2024-03-02T05:31:21;1.7;;;0.5;;
62457;SDS011;48509;52.122;5.250;2024-03-02T05:34:33;3.9;;;0.5;;
62457;SDS011;48509;52.122;5.250;2024-03-02T05:36:09;1.8;;;0.7;;
62457;SDS011;48509;52.122;5.250;2024-03-02T05:37:45;2.4;;;0.6;;
62457;SDS011;48509;52.122;5.250;2024-03-02T05:40:57;2.4;;;0.6;;
62457;SDS011;48509;52.122;5.250;2024-03-02T05:42:33;1.4;;;0.5;;
62457;SDS011;48509;52.122;5.250;2024-03-02T05:44:10;1.5;;;0.6;;
62457;SDS011;48509;52.122;5.250;2024-03-02T05:45:46;2.9;;;0.6;;
62457;SDS011;48509;52.122;5.250;2024-03-02T05:48:58;1.3;;;0.5;;
62457;SDS011;48509;52.122;5.250;2024-03-02T05:50:35;1.3;;;0.5;;
62457;SDS011;48509;52.122;5.250;2024-03-02T05:52:11;3.1;;;0.5;;
62457;SDS011;48509;52.122;5.250;2024-03-02T05:55:23;2.9;;;0.8;;
62457;SDS011;48509;52.122;5.250;2024-03-02T05:56:59;3.9;;;0.7;;
62457;SDS011;48509;52.122;5.250;2024-03-02T05:58:36;3.8;;;0.5;;
62457;SDS011;48509;52.122;5.250;2024-03-02T06:01:49;1.3;;;0.4;;
62457;SDS011;48509;52.122;5.250;2024-03-02T06:03:25;2.7;;;0.7;;
62457;SDS011;48509;52.122;5.250;2024-03-02T06:05:01;1.6;;;0.5;;
62457;SDS011;48509;52.122;5.250;2024-03-02T06:06:37;6.0;;;0.6;;
62457;SDS011;48509;52.122;5.250;2024-03-02T06:09:49;1.6;;;0.5;;
62457;SDS011;48509;52.122;5.250;2024-03-02T06:11:25;4.41;;;0.8;;
62457;SDS011;48509;52.122;5.250;2024-03-02T06:13:01;3.9;;;0.6;;
62457;SDS011;48509;52.122;5.250;2024-03-02T06:16:14;3.7;;;0.6;;
62457;SDS011;48509;52.122;5.250;2024-03-02T06:17:50;1.5;;;0.6;;
62457;SDS011;48509;52.122;5.250;2024-03-02T06:19:26;1.7;;;0.5;;
62457;SDS011;48509;52.122;5.250;2024-03-02T06:22:39;3.3;;;0.6;;
62457;SDS011;48509;52.122;5.250;2024-03-02T06:24:15;2.6;;;0.6;;
62457;SDS011;48509;52.122;5.250;2024-03-02T06:25:51;1.5;;;0.6;;
62457;SDS011;48509;52.122;5.250;2024-03-02T06:29:04;1.5;;;0.5;;
62457;SDS011;48509;52.122;5.250;2024-03-02T06:30:40;2.9;;;0.6;;
62457;SDS011;48509;52.122;5.250;2024-03-02T06:32:16;1.6;;;0.6;;
62457;SDS011;48509;52.122;5.250;2024-03-02T06:33:52;3.4;;;0.5;;
62457;SDS011;48509;52.122;5.250;2024-03-02T06:37:04;3.4;;;0.7;;
62457;SDS011;48509;52.122;5.250;2024-03-02T06:38:40;3.0;;;0.7;;
62457;SDS011;48509;52.122;5.250;2024-03-02T06:40:16;2.1;;;0.6;;
62457;SDS011;48509;52.122;5.250;2024-03-02T06:43:28;2.7;;;0.7;;
62457;SDS011;48509;52.122;5.250;2024-03-02T06:45:05;2.0;;;0.6;;
62457;SDS011;48509;52.122;5.250;2024-03-02T06:46:42;2.9;;;0.7;;
62457;SDS011;48509;52.122;5.250;2024-03-02T06:49:55;2.31;;;0.6;;
62457;SDS011;48509;52.122;5.250;2024-03-02T06:51:31;2.1;;;0.6;;
62457;SDS011;48509;52.122;5.250;2024-03-02T06:53:09;2.31;;;0.6;;
62457;SDS011;48509;52.122;5.250;2024-03-02T06:54:45;1.11;;;0.6;;
62457;SDS011;48509;52.122;5.250;2024-03-02T06:57:57;3.9;;;0.5;;
62457;SDS011;48509;52.122;5.250;2024-03-02T06:59:34;2.4;;;0.6;;
62457;SDS011;48509;52.122;5.250;2024-03-02T07:01:10;2.7;;;0.7;;
62457;SDS011;48509;52.122;5.250;2024-03-02T07:04:22;1.11;;;0.7;;
62457;SDS011;48509;52.122;5.250;2024-03-02T07:05:58;1.8;;;0.7;;
62457;SDS011;48509;52.122;5.250;2024-03-02T07:07:34;3.0;;;0.8;;
62457;SDS011;48509;52.122;5.250;2024-03-02T07:10:46;1.6;;;0.7;;
62457;SDS011;48509;52.122;5.250;2024-03-02T07:12:22;2.6;;;0.8;;
62457;SDS011;48509;52.122;5.250;2024-03-02T07:13:59;1.6;;;0.7;;
62457;SDS011;48509;52.122;5.250;2024-03-02T07:17:14;2.6;;;0.7;;
62457;SDS011;48509;52.122;5.250;2024-03-02T07:18:50;2.21;;;0.6;;
62457;SDS011;48509;52.122;5.250;2024-03-02T07:20:26;1.6;;;0.6;;
62457;SDS011;48509;52.122;5.250;2024-03-02T07:22:05;2.0;;;0.6;;
62457;SDS011;48509;52.122;5.250;2024-03-02T07:25:18;2.1;;;0.7;;
62457;SDS011;48509;52.122;5.250;2024-03-02T07:26:54;3.5;;;0.6;;
62457;SDS011;48509;52.122;5.250;2024-03-02T07:28:30;1.8;;;0.7;;
62457;SDS011;48509;52.122;5.250;2024-03-02T07:31:44;2.31;;;0.6;;
62457;SDS011;48509;52.122;5.250;2024-03-02T07:33:20;4.8;;;0.7;;
62457;SDS011;48509;52.122;5.250;2024-03-02T07:34:56;1.7;;;0.7;;
62457;SDS011;48509;52.122;5.250;2024-03-02T07:36:32;2.1;;;0.7;;
62457;SDS011;48509;52.122;5.250;2024-03-02T07:39:44;2.6;;;0.7;;
62457;SDS011;48509;52.122;5.250;2024-03-02T07:41:20;2.6;;;0.9;;
62457;SDS011;48509;52.122;5.250;2024-03-02T07:42:56;3.5;;;0.7;;
62457;SDS011;48509;52.122;5.250;2024-03-02T07:46:08;3.3;;;0.9;;
62457;SDS011;48509;52.122;5.250;2024-03-02T07:47:45;2.9;;;0.8;;
62457;SDS011;48509;52.122;5.250;2024-03-02T07:49:25;4.1;;;0.9;;
62457;SDS011;48509;52.122;5.250;2024-03-02T07:52:37;2.8;;;0.8;;
62457;SDS011;48509;52.122;5.250;2024-03-02T07:54:13;3.3;;;0.7;;
62457;SDS011;48509;52.122;5.250;2024-03-02T07:55:49;3.8;;;0.9;;
62457;SDS011;48509;52.122;5.250;2024-03-02T07:59:01;4.1;;;0.8;;
62457;SDS011;48509;52.122;5.250;2024-03-02T08:00:38;2.6;;;0.7;;
62457;SDS011;48509;52.122;5.250;2024-03-02T08:02:14;1.9;;;0.7;;
62457;SDS011;48509;52.122;5.250;2024-03-02T08:03:51;4.5;;;0.9;;
62457;SDS011;48509;52.122;5.250;2024-03-02T08:07:03;1.7;;;0.6;;
62457;SDS011;48509;52.122;5.250;2024-03-02T08:08:40;4.8;;;0.9;;
62457;SDS011;48509;52.122;5.250;2024-03-02T08:10:16;2.5;;;0.8;;
62457;SDS011;48509;52.122;5.250;2024-03-02T08:13:28;2.0;;;0.4;;
62457;SDS011;48509;52.122;5.250;2024-03-02T08:15:05;3.0;;;0.8;;
62457;SDS011;48509;52.122;5.250;2024-03-02T08:16:41;2.6;;;0.7;;
62457;SDS011;48509;52.122;5.250;2024-03-02T08:19:54;2.8;;;0.8;;
62457;SDS011;48509;52.122;5.250;2024-03-02T08:21:33;1.8;;;0.7;;
62457;SDS011;48509;52.122;5.250;2024-03-02T08:23:09;5.4;;;1.0;;
62457;SDS011;48509;52.122;5.250;2024-03-02T08:24:45;3.7;;;0.9;;
62457;SDS011;48509;52.122;5.250;2024-03-02T08:27:57;3.1;;;0.8;;
62457;SDS011;48509;52.122;5.250;2024-03-02T08:29:33;2.31;;;0.7;;
62457;SDS011;48509;52.122;5.250;2024-03-02T08:31:09;4.7;;;0.7;;
62457;SDS011;48509;52.122;5.250;2024-03-02T08:34:24;3.9;;;0.8;;
62457;SDS011;48509;52.122;5.250;2024-03-02T08:36:01;2.7;;;0.7;;
62457;SDS011;48509;52.122;5.250;2024-03-02T08:37:38;2.8;;;0.7;;
62457;SDS011;48509;52.122;5.250;2024-03-02T08:40:53;3.4;;;0.9;;
62457;SDS011;48509;52.122;5.250;2024-03-02T08:42:29;4.1;;;0.9;;
62457;SDS011;48509;52.122;5.250;2024-03-02T08:44:05;2.8;;;0.9;;
62457;SDS011;48509;52.122;5.250;2024-03-02T08:45:41;4.8;;;1.0;;
62457;SDS011;48509;52.122;5.250;2024-03-02T08:48:54;3.5;;;0.9;;
62457;SDS011;48509;52.122;5.250;2024-03-02T08:50:30;2.21;;;0.9;;
62457;SDS011;48509;52.122;5.250;2024-03-02T08:52:07;2.8;;;0.7;;
62457;SDS011;48509;52.122;5.250;2024-03-02T08:55:19;3.4;;;0.7;;
62457;SDS011;48509;52.122;5.250;2024-03-02T08:56:55;2.31;;;0.8;;
62457;SDS011;48509;52.122;5.250;2024-03-02T08:58:31;1.9;;;0.7;;
62457;SDS011;48509;52.122;5.250;2024-03-02T09:01:44;4.5;;;1.11;;
62457;SDS011;48509;52.122;5.250;2024-03-02T09:03:20;3.8;;;0.8;;
62457;SDS011;48509;52.122;5.250;2024-03-02T09:04:56;3.2;;;1.0;;
62457;SDS011;48509;52.122;5.250;2024-03-02T09:06:33;3.0;;;0.9;;
62457;SDS011;48509;52.122;5.250;2024-03-02T09:09:45;4.0;;;1.0;;
62457;SDS011;48509;52.122;5.250;2024-03-02T09:11:21;3.8;;;0.9;;
62457;SDS011;48509;52.122;5.250;2024-03-02T09:12:57;3.6;;;0.9;;
62457;SDS011;48509;52.122;5.250;2024-03-02T09:16:12;4.61;;;1.0;;
62457;SDS011;48509;52.122;5.250;2024-03-02T09:17:48;3.7;;;1.0;;
62457;SDS011;48509;52.122;5.250;2024-03-02T09:19:23;4.1;;;1.2;;
62457;SDS011;48509;52.122;5.250;2024-03-02T09:22:36;3.6;;;0.9;;
62457;SDS011;48509;52.122;5.250;2024-03-02T09:24:12;4.0;;;1.11;;
62457;SDS011;48509;52.122;5.250;2024-03-02T09:25:48;4.0;;;1.11;;
62457;SDS011;48509;52.122;5.250;2024-03-02T09:29:00;5.7;;;1.11;;
62457;SDS011;48509;52.122;5.250;2024-03-02T09:30:36;5.6;;;1.2;;
62457;SDS011;48509;52.122;5.250;2024-03-02T09:32:12;7.5;;;1.2;;
62457;SDS011;48509;52.122;5.250;2024-03-02T09:33:49;6.0;;;1.3;;
62457;SDS011;48509;52.122;5.250;2024-03-02T09:37:02;3.7;;;1.0;;
62457;SDS011;48509;52.122;5.250;2024-03-02T09:38:38;7.0;;;1.4;;
62457;SDS011;48509;52.122;5.250;2024-03-02T09:40:14;4.7;;;1.2;;
62457;SDS011;48509;52.122;5.250;2024-03-02T09:43:26;6.2;;;1.3;;
62457;SDS011;48509;52.122;5.250;2024-03-02T09:45:02;8.1;;;1.3;;
62457;SDS011;48509;52.122;5.250;2024-03-02T09:46:39;4.5;;;1.11;;
62457;SDS011;48509;52.122;5.250;2024-03-02T09:49:51;6.5;;;1.4;;
62457;SDS011;48509;52.122;5.250;2024-03-02T09:51:27;7.0;;;1.2;;
62457;SDS011;48509;52.122;5.250;2024-03-02T09:53:04;7.9;;;1.11;;
62457;SDS011;48509;52.122;5.250;2024-03-02T09:54:41;6.6;;;1.4;;
62457;SDS011;48509;52.122;5.250;2024-03-02T09:57:53;8.9;;;1.5;;
62457;SDS011;48509;52.122;5.250;2024-03-02T09:59:29;7.5;;;1.5;;
62457;SDS011;48509;52.122;5.250;2024-03-02T10:01:05;5.0;;;1.3;;
62457;SDS011;48509;52.122;5.250;2024-03-02T10:04:17;6.0;;;1.5;;
62457;SDS011;48509;52.122;5.250;2024-03-02T10:05:53;5.2;;;1.3;;
62457;SDS011;48509;52.122;5.250;2024-03-02T10:07:29;6.5;;;1.6;;
62457;SDS011;48509;52.122;5.250;2024-03-02T10:10:42;4.0;;;1.11;;
62457;SDS011;48509;52.122;5.250;2024-03-02T10:12:18;10.4;;;1.5;;
62457;SDS011;48509;52.122;5.250;2024-03-02T10:14:07;6.3;;;1.4;;
62457;SDS011;48509;52.122;5.250;2024-03-02T10:15:44;7.1;;;1.11;;
62457;SDS011;48509;52.122;5.250;2024-03-02T10:18:56;6.1;;;1.2;;
62457;SDS011;48509;52.122;5.250;2024-03-02T10:20:32;5.6;;;1.5;;
62457;SDS011;48509;52.122;5.250;2024-03-02T10:22:09;5.11;;;1.4;;
62457;SDS011;48509;52.122;5.250;2024-03-02T10:25:29;6.3;;;1.5;;
62457;SDS011;48509;52.122;5.250;2024-03-02T10:27:07;6.0;;;1.4;;
62457;SDS011;48509;52.122;5.250;2024-03-02T10:28:45;6.2;;;1.5;;
62457;SDS011;48509;52.122;5.250;2024-03-02T10:30:22;8.1;;;1.3;;
62457;SDS011;48509;52.122;5.250;2024-03-02T10:33:38;3.7;;;1.3;;
62457;SDS011;48509;52.122;5.250;2024-03-02T10:35:15;7.5;;;1.3;;
62457;SDS011;48509;52.122;5.250;2024-03-02T10:36:52;10.6;;;1.4;;
62457;SDS011;48509;52.122;5.250;2024-03-02T10:40:07;7.3;;;1.4;;
62457;SDS011;48509;52.122;5.250;2024-03-02T10:41:46;8.81;;;1.6;;
62457;SDS011;48509;52.122;5.250;2024-03-02T10:43:28;5.4;;;1.3;;
62457;SDS011;48509;52.122;5.250;2024-03-02T10:45:04;4.91;;;1.2;;
62457;SDS011;48509;52.122;5.250;2024-03-02T10:48:23;7.0;;;1.5;;
62457;SDS011;48509;52.122;5.250;2024-03-02T10:50:02;6.6;;;1.5;;
62457;SDS011;48509;52.122;5.250;2024-03-02T10:51:40;5.9;;;1.2;;
62457;SDS011;48509;52.122;5.250;2024-03-02T10:53:17;4.1;;;1.2;;
62457;SDS011;48509;52.122;5.250;2024-03-02T10:56:30;6.6;;;1.3;;
62457;SDS011;48509;52.122;5.250;2024-03-02T10:58:07;3.1;;;1.11;;
62457;SDS011;48509;52.122;5.250;2024-03-02T10:59:51;6.5;;;1.4;;
62457;SDS011;48509;52.122;5.250;2024-03-02T11:03:10;4.41;;;1.2;;
62457;SDS011;48509;52.122;5.250;2024-03-02T11:04:48;4.91;;;1.2;;
62457;SDS011;48509;52.122;5.250;2024-03-02T11:06:28;5.11;;;1.11;;
62457;SDS011;48509;52.122;5.250;2024-03-02T11:08:06;6.8;;;1.11;;
62457;SDS011;48509;52.122;5.250;2024-03-02T11:11:30;3.9;;;1.2;;
62457;SDS011;48509;52.122;5.250;2024-03-02T11:13:12;4.0;;;1.11;;
62457;SDS011;48509;52.122;5.250;2024-03-02T11:14:48;7.8;;;1.5;;
62457;SDS011;48509;52.122;5.250;2024-03-02T11:16:28;5.4;;;1.2;;
62457;SDS011;48509;52.122;5.250;2024-03-02T11:19:46;3.2;;;0.9;;
62457;SDS011;48509;52.122;5.250;2024-03-02T11:21:24;2.5;;;0.9;;
62457;SDS011;48509;52.122;5.250;2024-03-02T11:23:04;5.0;;;1.0;;
62457;SDS011;48509;52.122;5.250;2024-03-02T11:24:47;7.2;;;1.2;;
62457;SDS011;48509;52.122;5.250;2024-03-02T11:28:02;5.0;;;0.9;;
62457;SDS011;48509;52.122;5.250;2024-03-02T11:29:43;3.1;;;1.0;;
62457;SDS011;48509;52.122;5.250;2024-03-02T11:31:21;2.4;;;1.11;;
62457;SDS011;48509;52.122;5.250;2024-03-02T11:32:58;5.2;;;1.2;;
62457;SDS011;48509;52.122;5.250;2024-03-02T11:36:12;3.8;;;0.8;;
62457;SDS011;48509;52.122;5.250;2024-03-02T11:37:48;6.1;;;1.11;;
62457;SDS011;48509;52.122;5.250;2024-03-02T11:39:27;4.2;;;1.0;;
62457;SDS011;48509;52.122;5.250;2024-03-02T11:42:43;8.0;;;1.2;;
62457;SDS011;48509;52.122;5.250;2024-03-02T11:44:19;1.9;;;0.9;;
62457;SDS011;48509;52.122;5.250;2024-03-02T11:45:57;4.0;;;1.0;;
62457;SDS011;48509;52.122;5.250;2024-03-02T11:49:10;5.9;;;0.9;;
62457;SDS011;48509;52.122;5.250;2024-03-02T11:50:50;3.3;;;1.0;;
62457;SDS011;48509;52.122;5.250;2024-03-02T11:52:26;4.61;;;1.0;;
62457;SDS011;48509;52.122;5.250;2024-03-02T11:54:03;4.5;;;1.0;;
62457;SDS011;48509;52.122;5.250;2024-03-02T11:57:19;2.5;;;1.0;;
62457;SDS011;48509;52.122;5.250;2024-03-02T11:58:57;4.3;;;1.0;;
62457;SDS011;48509;52.122;5.250;2024-03-02T12:00:33;3.8;;;1.11;;
62457;SDS011;48509;52.122;5.250;2024-03-02T12:03:51;4.41;;;1.11;;
62457;SDS011;48509;52.122;5.250;2024-03-02T12:05:27;2.9;;;0.9;;
62457;SDS011;48509;52.122;5.250;2024-03-02T12:07:04;3.8;;;1.2;;
62457;SDS011;48509;52.122;5.250;2024-03-02T12:08:41;3.1;;;1.0;;
62457;SDS011;48509;52.122;5.250;2024-03-02T12:12:01;2.4;;;0.9;;
62457;SDS011;48509;52.122;5.250;2024-03-02T12:13:38;4.0;;;1.0;;
62457;SDS011;48509;52.122;5.250;2024-03-02T12:15:14;5.2;;;1.2;;
62457;SDS011;48509;52.122;5.250;2024-03-02T12:18:27;4.5;;;0.8;;
62457;SDS011;48509;52.122;5.250;2024-03-02T12:20:04;2.9;;;1.0;;
62457;SDS011;48509;52.122;5.250;2024-03-02T12:21:40;4.91;;;1.3;;
62457;SDS011;48509;52.122;5.250;2024-03-02T12:23:16;1.7;;;0.8;;
62457;SDS011;48509;52.122;5.250;2024-03-02T12:26:29;2.31;;;0.9;;
62457;SDS011;48509;52.122;5.250;2024-03-02T12:28:05;2.4;;;1.0;;
62457;SDS011;48509;52.122;5.250;2024-03-02T12:29:41;3.5;;;1.0;;
62457;SDS011;48509;52.122;5.250;2024-03-02T12:32:56;4.5;;;0.8;;
62457;SDS011;48509;52.122;5.250;2024-03-02T12:34:32;2.8;;;0.8;;
62457;SDS011;48509;52.122;5.250;2024-03-02T12:36:09;2.0;;;1.0;;
62457;SDS011;48509;52.122;5.250;2024-03-02T12:39:23;2.9;;;0.9;;
62457;SDS011;48509;52.122;5.250;2024-03-02T12:40:59;4.1;;;1.11;;
62457;SDS011;48509;52.122;5.250;2024-03-02T12:42:35;4.41;;;0.9;;
62457;SDS011;48509;52.122;5.250;2024-03-02T12:44:11;4.1;;;0.8;;
62457;SDS011;48509;52.122;5.250;2024-03-02T12:47:24;4.2;;;0.9;;
62457;SDS011;48509;52.122;5.250;2024-03-02T12:49:05;5.11;;;1.2;;
62457;SDS011;48509;52.122;5.250;2024-03-02T12:50:44;2.31;;;0.8;;
62457;SDS011;48509;52.122;5.250;2024-03-02T12:53:57;3.1;;;1.0;;
62457;SDS011;48509;52.122;5.250;2024-03-02T12:55:33;4.61;;;1.11;;
62457;SDS011;48509;52.122;5.250;2024-03-02T12:57:09;4.1;;;1.0;;
62457;SDS011;48509;52.122;5.250;2024-03-02T12:58:45;3.5;;;0.8;;